createdAt,value
2018-12-19T00:01:41.643Z,94.62
2018-12-19T00:04:17.745Z,94.71
2018-12-19T00:06:53.844Z,94.08
2018-12-19T00:09:29.867Z,94.41
2018-12-19T00:12:06.272Z,94.61
2018-12-19T00:14:42.716Z,95.25
2018-12-19T00:17:18.734Z,95.56
2018-12-19T00:19:55.024Z,94.43
2018-12-19T00:22:31.139Z,94.71
2018-12-19T00:25:08.261Z,95.53
2018-12-19T00:27:44.489Z,94.16
2018-12-19T00:30:20.490Z,93.91
2018-12-19T00:32:56.631Z,93.16
2018-12-19T00:35:32.937Z,93.32
2018-12-19T00:38:09.044Z,92.30
2018-12-19T00:40:45.028Z,93.19
2018-12-19T00:43:21.151Z,93.83
2018-12-19T00:45:57.171Z,93.70
2018-12-19T00:48:33.308Z,93.17
2018-12-19T00:51:09.615Z,94.76
2018-12-19T00:53:45.862Z,95.20
2018-12-19T00:56:22.016Z,93.21
2018-12-19T00:58:58.123Z,92.61
2018-12-19T01:01:34.131Z,92.54
2018-12-19T01:04:10.313Z,92.48
2018-12-19T01:06:46.262Z,92.83
2018-12-19T01:09:22.345Z,93.73
2018-12-19T01:11:58.168Z,92.86
2018-12-19T01:14:34.178Z,93.59
2018-12-19T01:17:10.187Z,93.83
2018-12-19T01:19:46.598Z,94.95
2018-12-19T01:22:22.623Z,93.22
2018-12-19T01:24:59.032Z,92.49
2018-12-19T01:27:35.047Z,93.45
2018-12-19T01:30:11.131Z,92.96
2018-12-19T01:32:47.169Z,92.99
2018-12-19T01:35:23.315Z,93.22
2018-12-19T01:37:59.304Z,94.09
2018-12-19T01:40:35.417Z,92.93
2018-12-19T01:43:11.385Z,93.51
2018-12-19T01:45:47.517Z,92.24
2018-12-19T01:48:24.397Z,93.45
2018-12-19T01:51:00.612Z,92.70
2018-12-19T01:53:36.570Z,93.09
2018-12-19T01:56:13.254Z,92.66
2018-12-19T01:58:49.316Z,93.96
2018-12-19T02:01:25.089Z,94.04
2018-12-19T02:04:01.147Z,93.48
2018-12-19T02:06:37.798Z,94.31
2018-12-19T02:09:15.235Z,93.59
2018-12-19T02:11:51.170Z,91.29
2018-12-19T02:14:27.215Z,92.85
2018-12-19T02:17:03.308Z,92.96
2018-12-19T02:19:39.355Z,92.55
2018-12-19T02:22:15.478Z,92.26
2018-12-19T02:24:52.378Z,92.04
2018-12-19T02:27:28.467Z,92.89
2018-12-19T02:30:06.157Z,92.54
2018-12-19T02:32:42.106Z,92.93
2018-12-19T02:35:18.155Z,92.75
2018-12-19T02:37:54.048Z,92.99
2018-12-19T02:40:30.277Z,93.35
2018-12-19T02:43:06.421Z,93.62
2018-12-19T02:45:42.382Z,95.11
2018-12-19T02:48:18.480Z,95.09
2018-12-19T02:50:54.538Z,94.91
2018-12-19T02:53:30.643Z,94.03
2018-12-19T02:56:06.610Z,94.47
2018-12-19T02:58:42.580Z,95.54
2018-12-19T03:01:18.427Z,96.52
2018-12-19T03:03:54.551Z,96.06
2018-12-19T03:06:30.577Z,95.38
2018-12-19T03:09:08.513Z,94.74
2018-12-19T03:11:44.844Z,93.98
2018-12-19T03:14:20.942Z,94.24
2018-12-19T03:16:56.959Z,94.40
2018-12-19T03:19:33.047Z,95.80
2018-12-19T03:22:08.894Z,96.31
2018-12-19T03:24:44.879Z,96.52
2018-12-19T03:27:21.205Z,95.35
2018-12-19T03:29:57.307Z,95.38
2018-12-19T03:32:33.318Z,94.38
2018-12-19T03:35:09.434Z,94.94
2018-12-19T03:37:45.429Z,94.16
2018-12-19T03:40:21.630Z,94.14
2018-12-19T03:42:57.614Z,94.31
2018-12-19T03:45:33.689Z,94.18
2018-12-19T03:51:18.569Z,94.69
2018-12-19T03:53:55.044Z,94.43
2018-12-19T03:56:31.276Z,94.47
2018-12-19T03:59:07.508Z,94.92
2018-12-19T04:01:47.023Z,95.23
2018-12-19T04:04:23.772Z,94.57
2018-12-19T04:07:00.569Z,93.93
2018-12-19T04:09:37.837Z,94.74
2018-12-19T04:12:14.378Z,95.18
2018-12-19T04:14:50.910Z,95.25
2018-12-19T04:17:27.052Z,95.32
2018-12-19T04:20:03.224Z,94.70
2018-12-19T04:22:39.322Z,94.92
2018-12-19T04:25:15.553Z,93.85
2018-12-19T04:27:51.674Z,93.53
2018-12-19T04:30:27.769Z,92.69
2018-12-19T04:33:03.975Z,93.04
2018-12-19T04:35:40.544Z,91.68
2018-12-19T04:38:17.172Z,92.84
2018-12-19T04:41:04.956Z,91.54
2018-12-19T04:47:15.800Z,92.57
2018-12-19T04:50:00.893Z,91.96
2018-12-19T04:53:05.703Z,92.36
2018-12-19T04:58:45.214Z,92.09
2018-12-19T05:01:21.519Z,93.14
2018-12-19T05:03:58.302Z,94.38
2018-12-19T05:06:34.390Z,93.52
2018-12-19T05:09:10.561Z,94.52
2018-12-19T05:11:47.077Z,93.66
2018-12-19T05:14:24.130Z,92.39
2018-12-19T05:17:00.773Z,90.83
2018-12-19T05:19:36.996Z,91.28
2018-12-19T05:22:13.358Z,92.55
2018-12-19T05:24:49.596Z,93.57
2018-12-19T05:27:25.736Z,92.75
2018-12-19T05:30:01.971Z,92.81
2018-12-19T05:32:38.714Z,94.27
2018-12-19T05:35:14.841Z,94.35
2018-12-19T05:37:51.285Z,94.45
2018-12-19T05:40:28.905Z,95.23
2018-12-19T05:43:05.136Z,94.87
2018-12-19T05:45:41.372Z,95.30
2018-12-19T05:48:19.169Z,96.06
2018-12-19T05:50:55.518Z,96.25
2018-12-19T05:53:32.269Z,95.48
2018-12-19T05:56:08.445Z,94.95
2018-12-19T05:58:44.523Z,94.00
2018-12-19T06:01:20.842Z,94.09
2018-12-19T06:03:56.995Z,94.66
2018-12-19T06:06:33.219Z,93.76
2018-12-19T06:09:09.382Z,91.79
2018-12-19T06:11:45.819Z,93.26
2018-12-19T06:14:23.016Z,94.27
2018-12-19T06:16:59.334Z,96.22
2018-12-19T06:19:35.426Z,95.27
2018-12-19T06:22:11.635Z,95.46
2018-12-19T06:24:47.765Z,95.95
2018-12-19T06:27:26.527Z,96.99
2018-12-19T06:30:02.746Z,97.59
2018-12-19T06:32:39.319Z,96.77
2018-12-19T06:35:15.414Z,97.01
2018-12-19T06:37:51.466Z,96.02
2018-12-19T06:40:32.661Z,96.22
2018-12-19T06:43:05.838Z,95.57
2018-12-19T06:45:41.841Z,95.30
2018-12-19T06:48:18.019Z,95.44
2018-12-19T06:50:54.158Z,95.67
2018-12-19T06:53:30.234Z,94.69
2018-12-19T06:56:06.469Z,93.78
2018-12-19T06:58:42.743Z,90.60
2018-12-19T07:01:19.308Z,90.94
2018-12-19T07:03:55.472Z,90.08
2018-12-19T07:06:31.766Z,88.49
2018-12-19T07:09:09.444Z,87.21
2018-12-19T07:11:45.527Z,84.49
2018-12-19T07:14:22.709Z,85.19
2018-12-19T07:16:58.842Z,85.05
2018-12-19T07:19:34.893Z,85.86
2018-12-19T07:22:11.111Z,85.88
2018-12-19T07:24:47.573Z,86.34
2018-12-19T07:27:23.920Z,86.37
2018-12-19T07:30:00.416Z,86.43
2018-12-19T07:32:36.317Z,86.00
2018-12-19T07:35:12.540Z,84.13
2018-12-19T07:37:48.918Z,84.47
2018-12-19T07:40:25.220Z,85.82
2018-12-19T07:43:01.346Z,86.32
2018-12-19T07:45:37.522Z,84.23
2018-12-19T07:48:14.291Z,84.56
2018-12-19T07:50:50.545Z,84.89
2018-12-19T07:53:27.245Z,86.28
2018-12-19T07:56:04.358Z,86.10
2018-12-19T07:58:40.639Z,85.95
2018-12-19T08:01:17.479Z,84.73
2018-12-19T08:03:53.790Z,82.73
2018-12-19T08:06:29.904Z,82.72
2018-12-19T08:09:08.564Z,82.90
2018-12-19T08:11:44.764Z,83.17
2018-12-19T08:14:20.919Z,83.86
2018-12-19T08:16:58.363Z,83.97
2018-12-19T08:19:35.514Z,83.65
2018-12-19T08:22:11.590Z,83.90
2018-12-19T08:24:47.647Z,84.14
2018-12-19T08:27:23.870Z,84.42
2018-12-19T08:29:59.996Z,84.50
2018-12-19T08:32:36.152Z,83.42
2018-12-19T08:35:12.380Z,84.77
2018-12-19T08:37:48.518Z,87.26
2018-12-19T08:40:24.681Z,86.56
2018-12-19T08:43:00.822Z,85.68
2018-12-19T08:45:37.430Z,85.58
2018-12-19T08:48:14.682Z,84.73
2018-12-19T08:50:51.591Z,84.56
2018-12-19T08:53:27.669Z,85.42
2018-12-19T08:56:03.764Z,86.98
2018-12-19T08:58:40.202Z,86.14
2018-12-19T09:01:16.402Z,86.91
2018-12-19T09:03:52.510Z,86.95
2018-12-19T09:06:28.520Z,86.38
2018-12-19T09:09:08.147Z,85.11
2018-12-19T09:11:44.339Z,84.70
2018-12-19T09:14:20.410Z,83.64
2018-12-19T09:16:56.439Z,81.92
2018-12-19T09:19:33.073Z,84.56
2018-12-19T09:22:09.711Z,83.68
2018-12-19T09:24:46.703Z,84.01
2018-12-19T09:27:22.817Z,83.29
2018-12-19T09:29:59.647Z,86.15
2018-12-19T09:32:35.866Z,84.01
2018-12-19T09:35:14.511Z,82.89
2018-12-19T09:37:50.744Z,80.89
2018-12-19T09:40:27.040Z,80.35
2018-12-19T09:43:03.279Z,81.27
2018-12-19T09:45:39.543Z,82.56
2018-12-19T09:48:15.621Z,81.76
2018-12-19T09:50:51.799Z,81.95
2018-12-19T09:53:28.475Z,80.81
2018-12-19T09:56:04.898Z,81.07
2018-12-19T09:58:41.414Z,81.81
2018-12-19T10:01:17.407Z,80.15
2018-12-19T10:03:53.530Z,79.67
2018-12-19T10:06:29.670Z,78.30
2018-12-19T10:09:14.531Z,78.99
2018-12-19T10:11:46.359Z,79.18
2018-12-19T10:14:23.966Z,79.59
2018-12-19T10:17:00.862Z,78.61
2018-12-19T10:19:37.719Z,78.78
2018-12-19T10:22:17.984Z,80.57
2018-12-19T10:25:00.686Z,80.20
2018-12-19T10:27:36.954Z,79.79
2018-12-19T10:30:14.645Z,78.79
2018-12-19T10:32:58.327Z,79.73
2018-12-19T10:35:34.656Z,79.16
2018-12-19T10:38:12.406Z,77.76
2018-12-19T10:40:48.635Z,77.36
2018-12-19T10:43:24.952Z,77.07
2018-12-19T10:46:01.387Z,77.66
2018-12-19T10:48:37.691Z,78.95
2018-12-19T10:51:13.982Z,78.95
2018-12-19T10:53:50.727Z,80.24
2018-12-19T10:56:26.868Z,82.14
2018-12-19T10:59:03.068Z,81.73
2018-12-19T11:01:39.096Z,81.58
2018-12-19T11:04:15.542Z,83.49
2018-12-19T11:06:51.730Z,84.55
2018-12-19T11:09:28.031Z,84.44
2018-12-19T11:12:04.275Z,84.51
2018-12-19T11:14:40.244Z,83.79
2018-12-19T11:17:16.435Z,84.60
2018-12-19T11:19:52.675Z,83.07
2018-12-19T11:22:28.836Z,84.78
2018-12-19T11:25:05.790Z,85.86
2018-12-19T11:27:42.475Z,84.43
2018-12-19T11:30:18.492Z,83.57
2018-12-19T11:32:56.248Z,82.87
2018-12-19T11:35:32.534Z,84.48
2018-12-19T11:38:08.970Z,84.04
2018-12-19T11:40:45.148Z,85.19
2018-12-19T11:43:21.394Z,81.95
2018-12-19T11:45:57.516Z,82.85
2018-12-19T11:48:33.638Z,81.71
2018-12-19T11:51:09.719Z,79.87
2018-12-19T11:53:45.912Z,81.67
2018-12-19T11:56:22.091Z,82.46
2018-12-19T11:58:58.616Z,82.21
2018-12-19T12:01:41.196Z,81.86
2018-12-19T12:04:13.695Z,82.09
2018-12-19T12:06:50.550Z,83.06
2018-12-19T12:09:26.636Z,83.22
2018-12-19T12:12:03.003Z,83.37
2018-12-19T12:14:39.361Z,82.41
2018-12-19T12:17:15.820Z,82.48
2018-12-19T12:19:54.313Z,82.44
2018-12-19T12:22:32.301Z,81.44
2018-12-19T12:25:09.841Z,80.94
2018-12-19T12:27:48.523Z,81.48
2018-12-19T12:30:25.480Z,81.37
2018-12-19T12:33:01.793Z,81.98
2018-12-19T12:35:39.470Z,80.36
2018-12-19T12:38:15.744Z,80.92
2018-12-19T12:40:51.960Z,80.21
2018-12-19T12:43:23.042Z,80.92
2018-12-19T12:45:54.295Z,82.02
2018-12-19T12:48:25.816Z,81.87
2018-12-19T12:50:56.892Z,81.39
2018-12-19T12:53:28.000Z,81.01
2018-12-19T12:55:59.079Z,81.00
2018-12-19T12:58:30.169Z,80.66
2018-12-19T13:01:01.257Z,79.45
2018-12-19T13:03:32.326Z,80.51
2018-12-19T13:06:03.380Z,81.97
2018-12-19T13:08:34.519Z,82.87
2018-12-19T13:11:06.320Z,83.77
2018-12-19T13:13:37.486Z,83.93
2018-12-19T13:16:08.607Z,83.37
2018-12-19T13:18:39.688Z,79.85
2018-12-19T13:21:10.752Z,78.68
2018-12-19T13:23:42.772Z,76.10
2018-12-19T13:26:14.383Z,74.18
2018-12-19T13:28:45.467Z,73.02
2018-12-19T13:31:18.404Z,68.26
2018-12-19T13:33:49.487Z,64.59
2018-12-19T13:36:47.577Z,65.17
2018-12-19T13:42:24.343Z,72.20
2018-12-19T13:44:58.401Z,74.45
2018-12-19T13:47:30.937Z,76.58
2018-12-19T13:50:02.623Z,78.15
2018-12-19T13:52:33.873Z,79.76
2018-12-19T13:55:06.033Z,79.13
2018-12-19T13:57:37.135Z,80.07
2018-12-19T14:00:10.783Z,81.16
2018-12-19T14:02:41.769Z,80.81
2018-12-19T14:05:13.340Z,83.57
2018-12-19T14:07:44.375Z,82.88
2018-12-19T14:10:15.483Z,83.67
2018-12-19T14:12:47.094Z,84.38
2018-12-19T14:15:18.065Z,83.82
2018-12-19T14:17:49.347Z,84.42
2018-12-19T14:20:20.353Z,84.70
2018-12-19T14:22:51.542Z,85.38
2018-12-19T14:25:22.652Z,86.97
2018-12-19T14:27:54.262Z,86.98
2018-12-19T14:30:25.573Z,86.93
2018-12-19T14:32:56.741Z,87.21
2018-12-19T14:35:27.839Z,88.47
2018-12-19T14:37:59.034Z,88.95
2018-12-19T14:40:30.526Z,89.30
2018-12-19T14:43:01.696Z,92.02
2018-12-19T14:45:32.751Z,95.79
2018-12-19T14:48:04.043Z,97.31
2018-12-19T14:50:35.140Z,97.75
2018-12-19T14:53:06.220Z,97.41
2018-12-19T14:55:37.357Z,96.17
2018-12-19T14:58:08.553Z,94.89
2018-12-19T15:00:39.658Z,92.49
2018-12-19T15:03:10.803Z,91.52
2018-12-19T15:05:41.887Z,90.51
2018-12-19T15:08:13.052Z,91.47
2018-12-19T15:10:44.324Z,91.81
2018-12-19T15:13:16.553Z,91.42
2018-12-19T15:15:53.001Z,90.22
2018-12-19T15:18:24.417Z,90.22
2018-12-19T15:20:55.552Z,91.00
2018-12-19T15:23:26.709Z,91.20
2018-12-19T15:25:57.821Z,89.36
2018-12-19T15:28:29.315Z,88.01
2018-12-19T15:31:00.418Z,89.78
2018-12-19T15:33:31.632Z,88.08
2018-12-19T15:36:03.509Z,88.35
2018-12-19T15:38:34.502Z,89.02
2018-12-19T15:41:05.717Z,90.70
2018-12-19T15:43:36.868Z,89.76
2018-12-19T15:46:08.002Z,87.38
2018-12-19T15:48:39.086Z,88.91
2018-12-19T15:51:10.195Z,88.84
2018-12-19T15:53:41.373Z,89.88
2018-12-19T15:56:12.482Z,88.33
2018-12-19T15:58:43.741Z,88.78
2018-12-19T16:01:14.766Z,88.34
2018-12-19T16:03:45.945Z,89.33
2018-12-19T16:06:17.059Z,88.46
2018-12-19T16:08:48.233Z,88.69
2018-12-19T16:11:19.344Z,90.47
2018-12-19T16:13:51.373Z,89.94
2018-12-19T16:16:22.573Z,89.82
2018-12-19T16:18:53.792Z,90.30
2018-12-19T16:21:24.881Z,90.86
2018-12-19T16:23:56.049Z,90.93
2018-12-19T16:26:27.145Z,92.13
2018-12-19T16:28:58.950Z,92.51
2018-12-19T16:31:30.086Z,94.86
2018-12-19T16:34:01.244Z,96.00
2018-12-19T16:36:32.339Z,96.34
2018-12-19T16:39:08.740Z,95.90
2018-12-19T16:41:39.883Z,95.94
2018-12-19T16:44:11.141Z,94.87
2018-12-19T16:46:42.149Z,94.81
2018-12-19T16:49:14.272Z,95.11
2018-12-19T16:51:45.396Z,95.56
2018-12-19T16:54:16.558Z,94.87
2018-12-19T16:56:47.646Z,96.07
2018-12-19T16:59:18.899Z,96.17
2018-12-19T17:01:49.922Z,96.93
2018-12-19T17:04:21.153Z,96.94
2018-12-19T17:06:52.265Z,96.84
2018-12-19T17:09:26.160Z,96.40
2018-12-19T17:11:57.272Z,96.77
2018-12-19T17:14:28.570Z,96.39
2018-12-19T17:16:59.974Z,96.27
2018-12-19T17:19:31.112Z,96.79
2018-12-19T17:22:04.783Z,97.71
2018-12-19T17:24:41.014Z,97.65
2018-12-19T17:27:12.172Z,97.13
2018-12-19T17:29:43.665Z,97.13
2018-12-19T17:35:04.237Z,100.00
2018-12-19T17:37:36.619Z,100.00
2018-12-19T17:40:09.407Z,100.00
2018-12-19T17:42:40.529Z,100.00
2018-12-19T17:45:11.752Z,100.00
2018-12-19T17:47:42.847Z,100.00
2018-12-19T17:50:14.020Z,100.00
2018-12-19T17:52:45.128Z,100.00
2018-12-19T17:55:16.275Z,98.90
2018-12-19T17:57:47.404Z,98.73
2018-12-19T18:00:18.670Z,98.64
2018-12-19T18:02:49.703Z,98.50
2018-12-19T18:05:20.912Z,98.09
2018-12-19T18:07:51.946Z,98.38
2018-12-19T18:10:23.184Z,98.82
2018-12-19T18:12:54.316Z,99.51
2018-12-19T18:15:26.683Z,99.67
2018-12-19T18:17:58.099Z,98.90
2018-12-19T18:20:29.362Z,98.71
2018-12-19T18:23:00.399Z,99.08
2018-12-19T18:25:32.016Z,99.29
2018-12-19T18:28:03.042Z,100.00
2018-12-19T18:30:34.246Z,100.00
2018-12-19T18:33:05.289Z,100.00
2018-12-19T18:35:36.454Z,99.28
2018-12-19T18:38:07.569Z,99.93
2018-12-19T18:40:38.762Z,99.38
2018-12-19T18:43:12.928Z,99.02
2018-12-19T18:45:42.946Z,99.71
2018-12-19T18:48:13.998Z,99.07
2018-12-19T18:50:45.328Z,99.02
2018-12-19T18:53:16.271Z,99.33
2018-12-19T18:55:47.467Z,99.05
2018-12-19T18:58:18.847Z,99.22
2018-12-19T19:00:50.113Z,99.49
2018-12-19T19:03:21.167Z,99.87
2018-12-19T19:05:52.467Z,98.53
2018-12-19T19:08:23.757Z,98.80
2018-12-19T19:10:54.932Z,99.17
2018-12-19T19:13:26.050Z,100.00
2018-12-19T19:15:57.279Z,100.00
2018-12-19T19:18:28.348Z,100.00
2018-12-19T19:20:59.753Z,100.00
2018-12-19T19:23:30.955Z,100.00
2018-12-19T19:26:02.107Z,100.00
2018-12-19T19:28:33.247Z,100.00
2018-12-19T19:31:04.854Z,100.00
2018-12-19T19:33:36.671Z,100.00
2018-12-19T19:36:07.641Z,100.00
2018-12-19T19:38:38.755Z,100.00
2018-12-19T19:41:14.116Z,100.00
2018-12-19T19:43:47.570Z,100.00
2018-12-19T19:46:22.295Z,99.56
2018-12-19T19:48:55.578Z,98.03
2018-12-19T19:51:28.737Z,97.27
2018-12-19T19:54:02.566Z,96.67
2018-12-19T19:56:33.828Z,97.09
2018-12-19T19:59:06.694Z,96.88
2018-12-19T20:01:39.243Z,98.09
2018-12-19T20:04:10.674Z,97.20
2018-12-19T20:06:43.087Z,96.83
2018-12-19T20:09:14.538Z,97.58
2018-12-19T20:11:47.515Z,96.90
2018-12-19T20:14:20.176Z,97.73
2018-12-19T20:16:56.979Z,96.11
2018-12-19T20:19:36.294Z,95.74
2018-12-19T20:22:08.301Z,93.17
2018-12-19T20:24:39.977Z,94.78
2018-12-19T20:27:12.175Z,94.19
2018-12-19T20:29:43.158Z,95.64
2018-12-19T20:32:14.390Z,95.68
2018-12-19T20:34:45.454Z,97.67
2018-12-19T20:37:17.533Z,98.65
2018-12-19T20:39:48.616Z,98.77
2018-12-19T20:42:19.538Z,98.39
2018-12-19T20:44:50.603Z,99.63
2018-12-19T20:47:21.790Z,100.00
2018-12-19T20:49:52.890Z,100.00
2018-12-19T20:52:24.066Z,100.00
2018-12-19T20:54:55.223Z,99.66
2018-12-19T20:57:26.339Z,98.34
2018-12-19T21:00:02.707Z,98.45
2018-12-19T21:02:38.819Z,97.88
2018-12-19T21:05:15.170Z,99.05
2018-12-19T21:07:51.279Z,100.00
2018-12-19T21:10:28.035Z,100.00
2018-12-19T21:13:03.983Z,100.00
2018-12-19T21:15:39.964Z,100.00
2018-12-19T21:18:21.221Z,100.00
2018-12-19T21:20:57.338Z,100.00
2018-12-19T21:23:33.473Z,100.00
2018-12-19T21:29:13.459Z,98.69
2018-12-19T21:31:50.285Z,99.65
2018-12-19T21:34:27.747Z,98.10
2018-12-19T21:37:05.844Z,97.72
2018-12-19T21:39:42.403Z,97.85
2018-12-19T21:42:19.177Z,98.86
2018-12-19T21:44:55.695Z,97.38
2018-12-19T21:47:31.912Z,97.03
2018-12-19T21:50:08.818Z,97.91
2018-12-19T21:52:46.705Z,99.67
2018-12-19T21:55:23.067Z,100.00
2018-12-19T21:58:00.182Z,100.00
2018-12-19T22:00:38.117Z,100.00
2018-12-19T22:03:14.306Z,100.00
2018-12-19T22:05:51.186Z,100.00
2018-12-19T22:08:27.668Z,100.00
2018-12-19T22:14:07.876Z,100.00
2018-12-19T22:16:49.500Z,100.00
2018-12-19T22:19:25.651Z,99.05
2018-12-19T22:22:01.699Z,98.39
2018-12-19T22:24:37.774Z,97.94
2018-12-19T22:27:14.073Z,97.38
2018-12-19T22:29:50.176Z,98.59
2018-12-19T22:32:26.490Z,97.13
2018-12-19T22:35:02.632Z,96.32
2018-12-19T22:37:39.021Z,97.05
2018-12-19T22:40:15.369Z,97.00
2018-12-19T22:42:54.162Z,96.83
2018-12-19T22:45:30.552Z,99.39
2018-12-19T22:48:07.276Z,100.00
2018-12-19T22:50:43.586Z,100.00
2018-12-19T22:53:19.604Z,100.00
2018-12-19T22:55:55.986Z,100.00
2018-12-19T22:58:32.009Z,100.00
2018-12-19T23:01:13.781Z,100.00
2018-12-19T23:03:55.157Z,99.64
2018-12-19T23:06:31.432Z,97.76
2018-12-19T23:09:08.188Z,98.58
2018-12-19T23:11:44.387Z,98.24
2018-12-19T23:14:20.811Z,99.02
2018-12-19T23:17:00.130Z,99.39
2018-12-19T23:19:36.474Z,99.86
2018-12-19T23:22:12.650Z,100.00
2018-12-19T23:24:55.015Z,99.41
2018-12-19T23:27:31.751Z,98.89
2018-12-19T23:30:09.244Z,99.30
2018-12-19T23:32:45.173Z,99.17
2018-12-19T23:35:21.784Z,99.45
2018-12-19T23:37:58.770Z,99.75
2018-12-19T23:40:34.826Z,100.00
2018-12-19T23:43:11.035Z,100.00
2018-12-19T23:45:47.534Z,100.00
2018-12-19T23:48:23.663Z,100.00
2018-12-19T23:50:59.739Z,99.69
2018-12-19T23:53:36.068Z,97.37
2018-12-19T23:57:36.699Z,96.80
